createdAt,value
2023-03-01T00:03:05.467Z,-3.95
2023-03-01T00:06:10.056Z,-3.96
2023-03-01T00:09:14.823Z,-4.05
2023-03-01T00:12:18.610Z,-3.73
2023-03-01T00:15:22.762Z,-3.11
2023-03-01T00:18:27.213Z,-2.06
2023-03-01T00:21:31.656Z,-2.24
2023-03-01T00:24:36.222Z,-1.80
2023-03-01T00:27:40.096Z,-1.71
2023-03-01T00:30:43.884Z,-1.51
2023-03-01T00:33:48.900Z,-0.75
2023-03-01T00:36:53.185Z,-0.23
2023-03-01T00:39:57.317Z,-1.14
2023-03-01T00:43:01.703Z,-0.20
2023-03-01T00:46:09.757Z,-0.01
2023-03-01T00:49:13.954Z,-0.01
2023-03-01T00:52:17.727Z,0.26
2023-03-01T00:55:22.136Z,0.63
2023-03-01T00:58:26.936Z,2.18
2023-03-01T01:01:33.112Z,1.68
2023-03-01T01:04:37.534Z,1.93
2023-03-01T01:07:41.575Z,0.93
2023-03-01T01:10:47.290Z,2.59
2023-03-01T01:13:52.347Z,1.99
2023-03-01T01:16:56.346Z,2.21
2023-03-01T01:20:01.008Z,2.49
2023-03-01T01:23:09.428Z,3.00
2023-03-01T01:26:17.137Z,3.69
2023-03-01T01:29:21.602Z,4.00
2023-03-01T01:32:28.133Z,3.51
2023-03-01T01:35:32.728Z,3.39
2023-03-01T01:38:38.156Z,3.36
2023-03-01T01:41:44.481Z,3.62
2023-03-01T01:44:49.357Z,4.30
2023-03-01T01:47:54.620Z,3.46
2023-03-01T01:51:02.606Z,4.07
2023-03-01T01:54:14.617Z,4.95
2023-03-01T01:57:23.948Z,4.39
2023-03-01T02:00:31.011Z,5.21
2023-03-01T02:03:39.089Z,4.51
2023-03-01T02:06:53.716Z,4.82
2023-03-01T02:09:58.941Z,4.70
2023-03-01T02:13:04.971Z,4.26
2023-03-01T02:16:15.210Z,3.86
2023-03-01T02:20:17.274Z,3.07
2023-03-01T02:23:22.216Z,3.63
2023-03-01T02:26:43.516Z,2.86
2023-03-01T02:29:47.815Z,1.91
2023-03-01T02:32:53.301Z,2.43
2023-03-01T02:35:58.868Z,2.20
2023-03-01T02:39:05.558Z,1.65
2023-03-01T02:42:14.619Z,1.41
2023-03-01T02:45:19.150Z,2.19
2023-03-01T02:48:23.104Z,2.26
2023-03-01T02:51:36.224Z,1.93
2023-03-01T02:55:06.271Z,1.53
2023-03-01T02:58:11.432Z,1.95
2023-03-01T03:01:17.752Z,1.57
2023-03-01T03:04:22.887Z,1.65
2023-03-01T03:07:27.518Z,1.07
2023-03-01T03:10:35.298Z,1.71
2023-03-01T03:13:49.691Z,1.58
2023-03-01T03:16:55.762Z,1.18
2023-03-01T03:20:00.109Z,1.33
2023-03-01T03:23:04.564Z,1.11
2023-03-01T03:26:08.928Z,0.97
2023-03-01T03:29:13.826Z,0.28
2023-03-01T03:32:18.215Z,0.90
2023-03-01T03:35:33.997Z,0.59
2023-03-01T03:38:38.296Z,-0.10
2023-03-01T03:41:42.907Z,-0.07
2023-03-01T03:44:47.240Z,0.83
2023-03-01T03:47:51.477Z,1.33
2023-03-01T03:50:57.685Z,1.50
2023-03-01T03:54:02.162Z,0.92
2023-03-01T03:57:06.547Z,0.36
2023-03-01T04:00:16.527Z,0.55
2023-03-01T04:03:22.211Z,1.37
2023-03-01T04:06:26.907Z,0.00
2023-03-01T04:09:32.021Z,-0.45
2023-03-01T04:12:36.912Z,-0.37
2023-03-01T04:15:41.538Z,-0.13
2023-03-01T04:18:46.469Z,0.54
2023-03-01T04:21:50.315Z,0.41
2023-03-01T04:24:54.397Z,-0.25
2023-03-01T04:27:58.712Z,0.43
2023-03-01T04:31:17.379Z,-0.44
2023-03-01T04:34:21.582Z,-0.52
2023-03-01T04:37:27.042Z,0.11
2023-03-01T04:40:31.496Z,0.55
2023-03-01T04:43:38.745Z,-0.14
2023-03-01T04:46:42.853Z,0.04
2023-03-01T04:49:46.811Z,0.20
2023-03-01T04:52:50.952Z,0.07
2023-03-01T04:55:57.334Z,-0.21
2023-03-01T04:59:02.441Z,-0.75
2023-03-01T05:02:07.098Z,-0.45
2023-03-01T05:05:11.977Z,0.48
2023-03-01T05:08:19.709Z,-0.15
2023-03-01T05:11:24.443Z,0.14
2023-03-01T05:14:30.632Z,0.10
2023-03-01T05:17:36.368Z,0.05
2023-03-01T05:20:41.125Z,-0.25
2023-03-01T05:23:45.827Z,0.03
2023-03-01T05:26:50.126Z,0.00
2023-03-01T05:29:54.590Z,0.55
2023-03-01T05:32:58.492Z,0.08
2023-03-01T05:36:02.937Z,0.18
2023-03-01T05:39:07.238Z,0.13
2023-03-01T05:42:13.814Z,0.52
2023-03-01T05:45:19.468Z,0.68
2023-03-01T05:48:24.632Z,0.46
2023-03-01T05:51:28.505Z,0.49
2023-03-01T05:54:32.801Z,0.75
2023-03-01T05:57:36.829Z,0.89
2023-03-01T06:00:41.449Z,1.14
2023-03-01T06:03:46.018Z,0.64
2023-03-01T06:06:50.388Z,0.31
2023-03-01T06:09:54.697Z,0.79
2023-03-01T06:12:59.676Z,0.20
2023-03-01T06:16:08.122Z,0.64
2023-03-01T06:19:12.583Z,0.55
2023-03-01T06:22:18.473Z,0.51
2023-03-01T06:25:25.139Z,0.11
2023-03-01T06:28:29.565Z,-0.17
2023-03-01T06:31:33.991Z,0.17
2023-03-01T06:34:38.285Z,0.26
2023-03-01T06:37:43.318Z,0.70
2023-03-01T06:40:53.421Z,0.71
2023-03-01T06:43:57.816Z,0.56
2023-03-01T06:47:02.255Z,0.27
2023-03-01T06:50:07.198Z,0.46
2023-03-01T06:53:12.484Z,0.11
2023-03-01T06:56:17.205Z,-0.30
2023-03-01T06:59:22.218Z,0.40
2023-03-01T07:02:26.172Z,0.11
2023-03-01T07:05:31.555Z,0.33
2023-03-01T07:08:35.653Z,0.11
2023-03-01T07:11:40.135Z,0.20
2023-03-01T07:14:45.964Z,0.37
2023-03-01T07:17:52.529Z,0.35
2023-03-01T07:20:56.550Z,0.10
2023-03-01T07:24:00.433Z,-0.17
2023-03-01T07:27:04.916Z,0.02
2023-03-01T07:30:09.986Z,-0.10
2023-03-01T07:33:14.522Z,0.03
2023-03-01T07:36:18.555Z,0.06
2023-03-01T07:39:22.343Z,-0.21
2023-03-01T07:42:26.843Z,0.04
2023-03-01T07:45:30.914Z,-0.11
2023-03-01T07:48:35.895Z,-0.14
2023-03-01T07:51:40.612Z,-0.30
2023-03-01T07:54:48.738Z,-0.02
2023-03-01T07:57:53.038Z,-0.15
2023-03-01T08:00:56.950Z,-0.28
2023-03-01T08:04:01.320Z,-0.29
2023-03-01T08:07:07.395Z,-0.49
2023-03-01T08:10:12.731Z,-0.84
2023-03-01T08:13:17.025Z,-0.96
2023-03-01T08:16:21.480Z,-0.88
2023-03-01T08:19:26.346Z,-0.84
2023-03-01T08:22:30.572Z,-1.10
2023-03-01T08:25:34.621Z,-1.48
2023-03-01T08:28:39.111Z,-1.64
2023-03-01T08:31:43.322Z,-1.76
2023-03-01T08:34:50.864Z,-1.84
2023-03-01T08:37:55.206Z,-2.15
2023-03-01T08:41:02.700Z,-2.47
2023-03-01T08:44:07.519Z,-2.24
2023-03-01T08:47:12.156Z,-2.30
2023-03-01T08:50:16.351Z,-2.32
2023-03-01T08:53:20.620Z,-2.33
2023-03-01T08:56:24.958Z,-2.33
2023-03-01T08:59:31.315Z,-2.87
2023-03-01T09:02:35.905Z,-2.65
2023-03-01T09:05:43.200Z,-2.57
2023-03-01T09:08:49.282Z,-2.82
2023-03-01T09:11:53.237Z,-3.09
2023-03-01T09:14:57.964Z,-3.02
2023-03-01T09:18:02.828Z,-3.24
2023-03-01T09:21:09.951Z,-3.38
2023-03-01T09:24:17.468Z,-3.50
2023-03-01T09:27:22.192Z,-3.48
2023-03-01T09:30:26.644Z,-3.42
2023-03-01T09:33:33.925Z,-3.41
2023-03-01T09:36:39.045Z,-3.47
2023-03-01T09:39:43.052Z,-3.76
2023-03-01T09:43:10.078Z,-3.75
2023-03-01T09:46:20.704Z,-3.92
2023-03-01T09:49:32.255Z,-4.06
2023-03-01T09:52:45.322Z,-4.04
2023-03-01T09:56:31.658Z,-4.27
2023-03-01T10:00:08.761Z,-4.16
2023-03-01T10:03:18.735Z,-4.52
2023-03-01T10:06:34.857Z,-4.56
2023-03-01T10:09:40.754Z,-4.77
2023-03-01T10:12:46.303Z,-4.76
2023-03-01T10:15:59.522Z,-4.74
2023-03-01T10:19:08.070Z,-4.97
2023-03-01T10:22:27.226Z,-5.19
2023-03-01T10:25:50.668Z,-5.41
2023-03-01T10:29:13.771Z,-5.32
2023-03-01T10:32:20.857Z,-5.20
2023-03-01T10:35:32.075Z,-4.86
2023-03-01T10:38:58.753Z,-5.30
2023-03-01T10:42:07.130Z,-5.05
2023-03-01T10:45:31.523Z,-4.85
2023-03-01T10:48:35.490Z,-5.23
2023-03-01T10:51:45.594Z,-5.62
2023-03-01T10:55:15.304Z,-5.65
2023-03-01T10:58:23.468Z,-5.67
2023-03-01T11:01:29.232Z,-5.75
2023-03-01T11:04:33.957Z,-5.65
2023-03-01T11:07:59.812Z,-5.56
2023-03-01T11:11:18.991Z,-5.61
2023-03-01T11:14:29.982Z,-5.80
2023-03-01T11:17:48.026Z,-5.70
2023-03-01T11:20:58.575Z,-6.47
2023-03-01T11:24:05.321Z,-6.28
2023-03-01T11:27:30.852Z,-6.02
2023-03-01T11:31:06.768Z,-5.92
2023-03-01T11:34:34.496Z,-6.11
2023-03-01T11:38:02.017Z,-6.31
2023-03-01T11:41:08.761Z,-6.49
2023-03-01T11:44:22.417Z,-6.68
2023-03-01T11:48:01.309Z,-6.93
2023-03-01T11:51:11.329Z,-6.70
2023-03-01T11:54:52.893Z,-6.55
2023-03-01T11:58:13.597Z,-6.13
2023-03-01T12:01:30.033Z,-6.01
2023-03-01T12:04:54.488Z,-5.89
2023-03-01T12:08:00.343Z,-5.82
2023-03-01T12:11:24.998Z,-6.23
2023-03-01T12:15:02.122Z,-6.38
2023-03-01T12:18:51.320Z,-6.80
2023-03-01T12:22:32.202Z,-7.32
2023-03-01T12:25:39.857Z,-7.13
2023-03-01T12:29:17.342Z,-7.17
2023-03-01T12:32:39.761Z,-7.29
2023-03-01T12:36:13.346Z,-7.44
2023-03-01T12:39:26.300Z,-7.41
2023-03-01T12:43:00.541Z,-7.59
2023-03-01T12:46:32.537Z,-7.18
2023-03-01T12:50:00.648Z,-7.56
2023-03-01T12:53:06.902Z,-7.70
2023-03-01T12:56:19.104Z,-7.80
2023-03-01T12:59:41.241Z,-7.72
2023-03-01T13:03:00.736Z,-7.78
2023-03-01T13:06:42.530Z,-7.72
2023-03-01T13:09:47.078Z,-7.77
2023-03-01T13:12:51.940Z,-7.76
2023-03-01T13:15:57.591Z,-8.17
2023-03-01T13:19:22.207Z,-8.05
2023-03-01T13:22:39.699Z,-7.86
2023-03-01T13:26:08.479Z,-8.13
2023-03-01T13:29:28.862Z,-8.09
2023-03-01T13:32:44.507Z,-8.49
2023-03-01T13:35:49.488Z,-8.52
2023-03-01T13:38:59.266Z,-8.85
2023-03-01T13:42:03.767Z,-8.65
2023-03-01T13:45:21.220Z,-8.83
2023-03-01T13:48:29.733Z,-9.18
2023-03-01T13:51:34.950Z,-8.92
2023-03-01T13:54:41.229Z,-8.97
2023-03-01T13:57:50.179Z,-8.88
2023-03-01T14:01:17.713Z,-8.79
2023-03-01T14:04:28.871Z,-9.31
2023-03-01T14:07:33.304Z,-9.09
2023-03-01T14:10:54.980Z,-9.19
2023-03-01T14:14:10.762Z,-9.67
2023-03-01T14:17:36.490Z,-9.40
2023-03-01T14:20:52.930Z,-9.58
2023-03-01T14:23:59.919Z,-9.28
2023-03-01T14:27:04.565Z,-9.31
2023-03-01T14:30:27.350Z,-9.41
2023-03-01T14:33:43.748Z,-9.48
2023-03-01T14:36:48.563Z,-9.46
2023-03-01T14:39:54.425Z,-9.22
2023-03-01T14:43:02.807Z,-9.37
2023-03-01T14:46:07.224Z,-9.58
2023-03-01T14:49:19.402Z,-9.37
2023-03-01T14:52:27.480Z,-9.91
2023-03-01T14:55:46.848Z,-10.00
2023-03-01T14:59:01.445Z,-10.02
2023-03-01T15:02:06.241Z,-9.84
2023-03-01T15:05:11.447Z,-9.97
2023-03-01T15:08:23.404Z,-10.08
2023-03-01T15:11:35.608Z,-10.35
2023-03-01T15:14:52.160Z,-10.36
2023-03-01T15:18:09.328Z,-10.47
2023-03-01T15:21:26.468Z,-10.49
2023-03-01T15:24:31.304Z,-10.66
2023-03-01T15:27:36.135Z,-10.38
2023-03-01T15:30:40.469Z,-10.50
2023-03-01T15:33:49.000Z,-10.53
2023-03-01T15:36:55.463Z,-10.68
2023-03-01T15:40:03.270Z,-10.76
2023-03-01T15:43:28.240Z,-10.89
2023-03-01T15:46:35.877Z,-11.03
2023-03-01T15:49:54.887Z,-10.95
2023-03-01T15:53:01.648Z,-11.20
2023-03-01T15:56:07.199Z,-11.08
2023-03-01T15:59:13.553Z,-10.98
2023-03-01T16:02:18.322Z,-10.99
2023-03-01T16:05:26.106Z,-11.34
2023-03-01T16:08:31.015Z,-11.53
2023-03-01T16:11:38.458Z,-11.57
2023-03-01T16:14:43.096Z,-11.48
2023-03-01T16:17:48.783Z,-11.42
2023-03-01T16:20:59.246Z,-11.62
2023-03-01T16:24:03.793Z,-11.66
2023-03-01T16:27:07.672Z,-11.67
2023-03-01T16:30:13.256Z,-11.71
2023-03-01T16:33:27.115Z,-11.72
2023-03-01T16:36:38.496Z,-11.87
2023-03-01T16:39:42.484Z,-11.88
2023-03-01T16:42:46.786Z,-11.92
2023-03-01T16:45:51.330Z,-12.00
2023-03-01T16:48:55.722Z,-12.01
2023-03-01T16:52:00.977Z,-11.85
2023-03-01T16:55:07.458Z,-11.84
2023-03-01T16:58:11.788Z,-11.93
2023-03-01T17:01:25.281Z,-12.05
2023-03-01T17:04:30.060Z,-11.91
2023-03-01T17:07:35.157Z,-11.95
2023-03-01T17:10:39.530Z,-12.17
2023-03-01T17:13:45.173Z,-12.30
2023-03-01T17:16:49.635Z,-12.61
2023-03-01T17:19:54.971Z,-12.63
2023-03-01T17:22:59.558Z,-12.75
2023-03-01T17:26:06.580Z,-12.58
2023-03-01T17:29:10.944Z,-12.60
2023-03-01T17:32:16.273Z,-12.53
2023-03-01T17:35:20.668Z,-12.71
2023-03-01T17:38:25.496Z,-12.62
2023-03-01T17:41:29.770Z,-12.42
2023-03-01T17:44:37.427Z,-12.27
2023-03-01T17:47:41.889Z,-11.78
2023-03-01T17:50:47.149Z,-12.20
2023-03-01T17:53:51.423Z,-12.65
2023-03-01T17:56:57.045Z,-12.84
2023-03-01T18:00:01.345Z,-12.63
2023-03-01T18:03:15.566Z,-12.93
2023-03-01T18:06:23.240Z,-12.77
2023-03-01T18:09:31.392Z,-12.59
2023-03-01T18:12:35.903Z,-12.89
2023-03-01T18:15:40.248Z,-12.97
2023-03-01T18:18:46.077Z,-13.26
2023-03-01T18:21:50.480Z,-12.99
2023-03-01T18:24:55.201Z,-12.87
2023-03-01T18:27:59.523Z,-13.04
2023-03-01T18:31:09.232Z,-12.97
2023-03-01T18:34:15.446Z,-13.39
2023-03-01T18:37:19.739Z,-13.27
2023-03-01T18:40:24.087Z,-13.16
2023-03-01T18:43:29.672Z,-12.85
2023-03-01T18:46:36.987Z,-13.19
2023-03-01T18:49:42.321Z,-13.27
2023-03-01T18:52:46.597Z,-12.99
2023-03-01T18:55:51.037Z,-12.55
2023-03-01T18:58:55.329Z,-12.71
2023-03-01T19:02:00.133Z,-13.41
2023-03-01T19:05:04.718Z,-13.59
2023-03-01T19:08:09.060Z,-13.34
2023-03-01T19:11:14.867Z,-13.17
2023-03-01T19:14:19.381Z,-13.06
2023-03-01T19:17:31.135Z,-13.43
2023-03-01T19:20:35.485Z,-13.56
2023-03-01T19:23:40.178Z,-13.43
2023-03-01T19:26:44.080Z,-13.59
2023-03-01T19:29:48.624Z,-13.54
2023-03-01T19:32:53.399Z,-13.79
2023-03-01T19:35:58.107Z,-13.46
2023-03-01T19:39:07.928Z,-13.21
2023-03-01T19:42:13.074Z,-13.61
2023-03-01T19:45:22.462Z,-13.89
2023-03-01T19:48:30.473Z,-13.95
2023-03-01T19:51:37.383Z,-14.02
2023-03-01T19:54:41.286Z,-13.62
2023-03-01T19:57:45.628Z,-13.45
2023-03-01T20:00:51.311Z,-13.39
2023-03-01T20:03:55.774Z,-13.89
2023-03-01T20:07:00.420Z,-13.84
2023-03-01T20:10:06.983Z,-14.19
2023-03-01T20:13:11.302Z,-14.28
2023-03-01T20:16:20.530Z,-14.15
2023-03-01T20:19:24.932Z,-14.22
2023-03-01T20:22:28.805Z,-14.03
2023-03-01T20:25:33.079Z,-14.29
2023-03-01T20:28:38.441Z,-14.48
2023-03-01T20:31:43.381Z,-14.87
2023-03-01T20:34:47.383Z,-14.99
2023-03-01T20:37:54.777Z,-15.07
2023-03-01T20:41:04.859Z,-15.04
2023-03-01T20:44:10.317Z,-14.89
2023-03-01T20:47:15.694Z,-14.94
2023-03-01T20:50:21.187Z,-15.40
2023-03-01T20:53:25.128Z,-15.08
2023-03-01T20:56:29.517Z,-15.15
2023-03-01T20:59:39.780Z,-15.04
2023-03-01T21:02:44.954Z,-14.86
2023-03-01T21:05:49.219Z,-14.64
2023-03-01T21:08:55.067Z,-15.11
2023-03-01T21:11:59.600Z,-15.23
2023-03-01T21:15:03.580Z,-15.45
2023-03-01T21:18:08.540Z,-15.41
2023-03-01T21:21:22.248Z,-15.25
2023-03-01T21:24:26.504Z,-15.48
2023-03-01T21:27:30.809Z,-15.18
2023-03-01T21:30:36.532Z,-15.30
2023-03-01T21:33:44.825Z,-15.18
2023-03-01T21:36:51.382Z,-15.32
2023-03-01T21:39:55.879Z,-15.16
2023-03-01T21:42:59.753Z,-15.67
2023-03-01T21:46:11.265Z,-15.85
2023-03-01T21:49:15.678Z,-16.10
2023-03-01T21:52:19.926Z,-15.57
2023-03-01T21:55:24.260Z,-15.79
2023-03-01T21:58:29.925Z,-15.89
2023-03-01T22:01:34.419Z,-15.43
2023-03-01T22:04:38.710Z,-15.30
2023-03-01T22:07:42.713Z,-15.34
2023-03-01T22:10:47.198Z,-15.09
2023-03-01T22:13:52.903Z,-15.72
2023-03-01T22:16:57.014Z,-16.13
2023-03-01T22:20:01.397Z,-15.93
2023-03-01T22:23:06.994Z,-16.07
2023-03-01T22:26:27.028Z,-16.10
2023-03-01T22:29:34.156Z,-15.40
2023-03-01T22:32:38.112Z,-15.40
2023-03-01T22:35:44.834Z,-14.99
2023-03-01T22:38:49.511Z,-15.01
2023-03-01T22:41:55.470Z,-14.93
2023-03-01T22:45:00.293Z,-14.65
2023-03-01T22:48:05.740Z,-14.73
2023-03-01T22:51:22.756Z,-13.55
2023-03-01T22:54:26.852Z,-12.14
2023-03-01T22:57:37.510Z,-10.30
2023-03-01T23:00:42.304Z,-9.21
2023-03-01T23:03:55.356Z,-9.32
2023-03-01T23:07:07.746Z,-9.49
2023-03-01T23:10:13.090Z,-8.28
2023-03-01T23:13:17.888Z,-7.89
2023-03-01T23:16:26.937Z,-8.47
2023-03-01T23:19:31.733Z,-7.35
2023-03-01T23:22:37.905Z,-6.57
2023-03-01T23:25:42.577Z,-7.42
2023-03-01T23:28:48.188Z,-7.04
2023-03-01T23:31:52.817Z,-7.14
2023-03-01T23:34:57.142Z,-6.70
2023-03-01T23:38:01.574Z,-5.44
2023-03-01T23:41:06.082Z,-4.15
2023-03-01T23:44:17.933Z,-4.54
2023-03-01T23:47:22.509Z,-4.61
2023-03-01T23:50:27.274Z,-4.98
2023-03-01T23:53:31.606Z,-5.44
2023-03-01T23:56:38.665Z,-6.10
2023-03-01T23:59:42.936Z,-6.97
